createdAt,value
2023-05-16T00:01:13.449Z,1.38
2023-05-16T00:04:33.286Z,1.80
2023-05-16T00:07:55.258Z,1.17
2023-05-16T00:14:43.171Z,1.23
2023-05-16T00:18:06.775Z,1.48
2023-05-16T00:21:41.431Z,1.45
2023-05-16T00:24:52.180Z,0.80
2023-05-16T00:31:36.071Z,1.52
2023-05-16T00:35:15.072Z,0.88
2023-05-16T00:38:47.405Z,1.30
2023-05-16T00:45:38.488Z,1.45
2023-05-16T00:48:41.666Z,1.40
2023-05-16T00:52:07.644Z,0.85
2023-05-16T00:55:17.754Z,0.95
2023-05-16T01:01:57.466Z,1.08
2023-05-16T01:05:10.843Z,0.80
2023-05-16T01:15:11.385Z,1.88
2023-05-16T01:21:50.190Z,1.05
2023-05-16T01:25:07.853Z,1.45
2023-05-16T01:28:47.754Z,1.17
2023-05-16T01:32:32.528Z,1.35
2023-05-16T01:36:17.306Z,1.20
2023-05-16T01:39:36.514Z,1.80
2023-05-16T01:42:52.205Z,1.60
2023-05-16T01:46:15.448Z,1.55
2023-05-16T01:49:40.064Z,1.35
2023-05-16T01:53:22.634Z,1.33
2023-05-16T01:59:33.507Z,1.52
2023-05-16T02:03:03.729Z,1.73
2023-05-16T02:06:17.445Z,1.95
2023-05-16T02:09:53.025Z,0.90
2023-05-16T02:12:54.461Z,0.82
2023-05-16T02:16:16.502Z,1.00
2023-05-16T02:19:29.632Z,1.83
2023-05-16T02:22:39.302Z,1.13
2023-05-16T02:26:25.256Z,2.38
2023-05-16T02:32:52.662Z,1.05
2023-05-16T02:39:53.821Z,1.55
2023-05-16T02:43:28.967Z,1.30
2023-05-16T02:47:03.649Z,1.63
2023-05-16T02:50:12.923Z,1.65
2023-05-16T02:53:41.044Z,1.85
2023-05-16T02:56:45.986Z,1.88
2023-05-16T02:59:47.173Z,1.80
2023-05-16T03:03:47.105Z,1.58
2023-05-16T03:07:00.054Z,1.40
2023-05-16T03:13:24.697Z,2.08
2023-05-16T03:16:35.525Z,1.35
2023-05-16T03:20:01.662Z,1.98
2023-05-16T03:23:40.216Z,1.27
2023-05-16T03:27:19.502Z,2.25
2023-05-16T03:31:32.691Z,1.50
2023-05-16T03:39:38.981Z,1.65
2023-05-16T03:47:48.622Z,2.07
2023-05-16T04:11:20.021Z,1.88
2023-05-16T04:23:54.888Z,2.60
2023-05-16T04:35:04.911Z,1.92
2023-05-16T04:39:16.885Z,1.88
2023-05-16T04:46:42.961Z,1.45
2023-05-16T04:59:18.311Z,1.30
2023-05-16T05:03:13.045Z,0.70
2023-05-16T05:07:23.880Z,0.82
2023-05-16T05:15:32.084Z,0.80
2023-05-16T05:31:28.121Z,1.23
2023-05-16T05:33:32.554Z,1.05
2023-05-16T05:42:54.517Z,0.30
2023-05-16T05:47:20.745Z,0.63
2023-05-16T05:51:12.842Z,0.40
2023-05-16T06:03:36.553Z,0.40
2023-05-16T06:07:21.813Z,0.30
2023-05-16T06:14:39.003Z,0.50
2023-05-16T06:26:36.642Z,0.40
2023-05-16T06:43:05.461Z,0.45
2023-05-16T06:47:20.582Z,0.32
2023-05-16T07:11:40.738Z,0.30
2023-05-16T07:22:29.564Z,0.40
2023-05-16T07:26:34.972Z,0.32
2023-05-16T07:31:14.969Z,0.20
2023-05-16T07:34:16.526Z,1.08
2023-05-16T07:43:28.469Z,0.30
2023-05-16T07:57:25.130Z,0.90
2023-05-16T08:35:59.729Z,0.60
2023-05-16T08:39:43.584Z,0.52
2023-05-16T08:43:20.983Z,0.30
2023-05-16T08:46:39.784Z,0.90
2023-05-16T09:12:32.554Z,0.40
2023-05-16T09:20:33.647Z,0.85
2023-05-16T09:25:02.097Z,0.52
2023-05-16T09:37:14.086Z,0.75
2023-05-16T09:40:34.604Z,0.28
2023-05-16T09:48:30.450Z,0.50
2023-05-16T10:07:16.874Z,0.30
2023-05-16T10:11:03.201Z,0.52
2023-05-16T10:25:57.021Z,0.25
2023-05-16T10:33:09.647Z,0.30
2023-05-16T10:37:05.292Z,0.35
2023-05-16T10:41:11.088Z,0.20
2023-05-16T10:45:04.985Z,0.10
2023-05-16T10:56:55.323Z,0.20
2023-05-16T11:00:14.749Z,0.55
2023-05-16T11:03:33.482Z,0.20
2023-05-16T11:07:13.207Z,0.10
2023-05-16T11:10:36.906Z,0.52
2023-05-16T11:17:43.438Z,0.30
2023-05-16T11:21:17.028Z,0.30
2023-05-16T11:24:43.505Z,0.20
2023-05-16T11:34:47.036Z,0.20
2023-05-16T11:37:56.632Z,0.20
2023-05-16T11:42:28.805Z,0.25
2023-05-16T11:44:47.076Z,0.30
2023-05-16T11:51:25.059Z,0.40
2023-05-16T11:55:01.184Z,0.50
2023-05-16T11:58:07.538Z,0.20
2023-05-16T12:01:23.673Z,0.40
2023-05-16T12:04:30.536Z,0.25
2023-05-16T12:07:56.184Z,0.20
2023-05-16T12:11:35.314Z,0.35
2023-05-16T12:15:27.966Z,0.22
2023-05-16T12:22:15.173Z,0.20
2023-05-16T12:25:57.257Z,0.35
2023-05-16T12:29:05.809Z,0.20
2023-05-16T12:32:43.467Z,0.30
2023-05-16T12:36:33.041Z,0.30
2023-05-16T12:39:32.646Z,0.38
2023-05-16T12:42:41.111Z,0.28
2023-05-16T12:49:57.082Z,0.20
2023-05-16T12:53:07.391Z,0.20
2023-05-16T12:56:32.016Z,0.30
2023-05-16T12:59:38.734Z,0.20
2023-05-16T13:06:00.267Z,0.13
2023-05-16T13:09:14.652Z,0.28
2023-05-16T13:12:59.528Z,0.30
2023-05-16T13:15:59.037Z,0.38
2023-05-16T13:19:19.901Z,0.30
2023-05-16T13:22:19.200Z,0.20
2023-05-16T13:29:17.163Z,0.20
2023-05-16T13:33:21.905Z,0.17
2023-05-16T13:36:31.426Z,0.30
2023-05-16T13:39:59.353Z,0.10
2023-05-16T13:43:05.524Z,0.30
2023-05-16T13:46:11.160Z,0.20
2023-05-16T13:49:24.082Z,0.38
2023-05-16T13:59:24.631Z,0.30
2023-05-16T14:02:51.976Z,0.20
2023-05-16T14:06:49.581Z,0.25
2023-05-16T14:10:34.113Z,0.20
2023-05-16T14:14:02.738Z,0.40
2023-05-16T14:20:40.128Z,0.30
2023-05-16T14:23:45.250Z,0.30
2023-05-16T14:27:06.868Z,0.20
2023-05-16T14:37:10.250Z,0.28
2023-05-16T14:50:34.876Z,0.20
2023-05-16T14:54:05.186Z,0.17
2023-05-16T15:01:11.697Z,0.20
2023-05-16T15:04:53.037Z,0.10
2023-05-16T15:08:28.046Z,0.10
2023-05-16T15:12:31.416Z,0.15
2023-05-16T15:15:51.661Z,0.10
2023-05-16T15:18:59.937Z,0.20
2023-05-16T15:22:09.917Z,0.20
2023-05-16T15:25:51.641Z,0.20
2023-05-16T15:29:25.661Z,0.30
2023-05-16T15:39:45.364Z,0.10
2023-05-16T15:46:15.870Z,0.10
2023-05-16T15:49:33.786Z,0.10
2023-05-16T15:56:29.033Z,0.20
2023-05-16T15:59:39.410Z,0.20
2023-05-16T16:02:47.472Z,0.20
2023-05-16T16:05:59.259Z,0.20
2023-05-16T16:09:12.937Z,0.17
2023-05-16T16:12:26.891Z,0.20
2023-05-16T16:19:26.944Z,0.15
2023-05-16T16:23:08.755Z,0.30
2023-05-16T16:29:37.369Z,0.43
2023-05-16T16:32:46.719Z,0.30
2023-05-16T16:36:09.239Z,0.20
2023-05-16T16:39:44.261Z,0.28
2023-05-16T16:46:14.118Z,0.20
2023-05-16T16:49:22.853Z,0.40
2023-05-16T16:58:58.422Z,0.50
2023-05-16T17:02:18.879Z,0.40
2023-05-16T17:05:41.166Z,0.40
2023-05-16T17:08:49.418Z,0.68
2023-05-16T17:11:57.791Z,0.70
2023-05-16T17:15:28.401Z,0.70
2023-05-16T17:18:44.151Z,0.85
2023-05-16T17:24:57.187Z,0.85
2023-05-16T17:27:56.123Z,0.93
2023-05-16T17:30:49.402Z,0.88
2023-05-16T17:33:54.953Z,1.02
2023-05-16T17:36:59.268Z,1.00
2023-05-16T17:40:35.111Z,1.52
2023-05-16T17:43:54.951Z,1.10
2023-05-16T17:47:14.256Z,1.52
2023-05-16T17:50:38.444Z,1.27
2023-05-16T17:53:41.938Z,1.27
2023-05-16T17:57:04.321Z,1.92
2023-05-16T18:00:10.874Z,1.70
2023-05-16T18:09:55.782Z,2.30
2023-05-16T18:13:12.904Z,2.33
2023-05-16T18:17:44.293Z,2.08
2023-05-16T18:20:06.124Z,1.85
2023-05-16T18:23:37.422Z,1.60
2023-05-16T18:27:06.068Z,1.70
2023-05-16T18:30:09.649Z,1.58
2023-05-16T18:33:43.577Z,1.75
2023-05-16T18:39:54.492Z,1.27
2023-05-16T18:43:11.098Z,0.93
2023-05-16T18:46:22.194Z,1.20
2023-05-16T18:49:32.388Z,1.20
2023-05-16T18:52:41.781Z,1.05
2023-05-16T18:56:00.016Z,1.60
2023-05-16T19:02:42.588Z,1.35
2023-05-16T19:06:04.255Z,1.58
2023-05-16T19:09:10.042Z,1.35
2023-05-16T19:12:31.326Z,1.42
2023-05-16T19:15:55.812Z,1.45
2023-05-16T19:20:00.991Z,1.25
2023-05-16T19:23:45.200Z,2.55
2023-05-16T19:33:31.363Z,1.70
2023-05-16T19:36:27.900Z,1.70
2023-05-16T19:40:10.156Z,1.88
2023-05-16T19:43:52.256Z,1.33
2023-05-16T19:47:18.952Z,0.73
2023-05-16T19:50:41.546Z,0.90
2023-05-16T19:54:03.774Z,1.00
2023-05-16T19:57:26.379Z,0.90
2023-05-16T20:00:42.960Z,0.75
2023-05-16T20:04:27.069Z,0.88
2023-05-16T20:11:21.142Z,1.58
2023-05-16T20:14:39.149Z,1.10
2023-05-16T20:17:55.368Z,1.60
2023-05-16T20:24:44.272Z,1.50
2023-05-16T20:28:16.191Z,1.27
2023-05-16T20:31:21.799Z,1.80
2023-05-16T20:34:32.081Z,1.90
2023-05-16T20:38:10.358Z,1.20
2023-05-16T20:45:26.627Z,1.50
2023-05-16T20:52:22.947Z,1.50
2023-05-16T20:55:38.355Z,1.40
2023-05-16T21:01:48.252Z,1.70
2023-05-16T21:04:59.337Z,2.10
2023-05-16T21:08:12.938Z,1.92
2023-05-16T21:12:03.915Z,2.00
2023-05-16T21:15:39.541Z,2.08
2023-05-16T21:27:06.823Z,2.08
2023-05-16T21:30:13.425Z,2.22
2023-05-16T21:33:37.139Z,2.30
2023-05-16T21:36:41.507Z,2.25
2023-05-16T21:40:02.233Z,2.10
2023-05-16T21:43:29.556Z,1.95
2023-05-16T21:47:21.448Z,2.45
2023-05-16T21:50:21.659Z,2.47
2023-05-16T21:53:54.811Z,2.25
2023-05-16T21:57:17.763Z,2.67
2023-05-16T22:00:52.898Z,2.00
2023-05-16T22:07:36.378Z,2.67
2023-05-16T22:14:39.465Z,3.03
2023-05-16T22:18:01.280Z,2.65
2023-05-16T22:21:10.517Z,3.78
2023-05-16T22:24:20.502Z,3.47
2023-05-16T22:34:30.214Z,3.03
2023-05-16T22:37:45.417Z,3.95
2023-05-16T22:41:16.903Z,4.72
2023-05-16T22:44:25.933Z,4.88
2023-05-16T22:47:38.112Z,4.53
2023-05-16T22:51:08.553Z,4.85
2023-05-16T22:54:22.296Z,5.53
2023-05-16T22:57:21.527Z,5.45
2023-05-16T23:00:45.085Z,6.00
2023-05-16T23:04:06.896Z,5.25
2023-05-16T23:07:10.871Z,6.07
2023-05-16T23:10:37.082Z,5.57
2023-05-16T23:14:09.944Z,5.90
2023-05-16T23:17:19.915Z,6.55
2023-05-16T23:20:15.218Z,6.75
2023-05-16T23:23:16.805Z,6.97
2023-05-16T23:26:26.652Z,6.65
2023-05-16T23:33:16.293Z,8.63
2023-05-16T23:36:36.043Z,8.27
2023-05-16T23:46:24.788Z,8.80
2023-05-16T23:53:41.362Z,8.52
2023-05-16T23:57:15.215Z,8.73
